Time;durP1;ratioP1;P1;durP2;ratioP2;P2;SDS_P1;SDS_P2;PMS_P1;PMS_P2;Temp;Humidity;BMP_temperature;BMP_pressure;BME280_temperature;BME280_humidity;BME280_pressure;Samples;Min_cycle;Max_cycle;Signal;HPM_P1;HPM_P2
2022/11/27 00:02:11;;;;;;;10.97;9.90;;;6.00;90.70;;;;;;5098419;28;20242;-46
2022/11/27 00:04:37;;;;;;;12.13;10.83;;;6.00;90.70;;;;;;5098758;28;20425;-44
2022/11/27 00:07:04;;;;;;;10.60;9.60;;;5.90;90.70;;;;;;5097763;28;20176;-46
2022/11/27 00:09:29;;;;;;;11.10;10.00;;;5.90;90.70;;;;;;5098432;28;20847;-46
2022/11/27 00:11:55;;;;;;;10.80;9.70;;;5.80;90.70;;;;;;5096195;28;20423;-43
2022/11/27 00:14:21;;;;;;;11.73;10.53;;;5.80;90.70;;;;;;5097442;28;20237;-43
2022/11/27 00:16:46;;;;;;;11.27;10.17;;;5.80;90.70;;;;;;5096672;28;20184;-45
2022/11/27 00:19:12;;;;;;;11.50;10.50;;;5.80;90.70;;;;;;5096008;28;20597;-44
2022/11/27 00:21:37;;;;;;;11.20;10.00;;;5.70;90.60;;;;;;5096174;28;20195;-45
2022/11/27 00:24:05;;;;;;;12.03;10.87;;;5.70;90.60;;;;;;5096373;28;20326;-46
2022/11/27 00:26:31;;;;;;;11.97;10.33;;;5.60;90.60;;;;;;5096808;28;20173;-44
2022/11/27 00:28:56;;;;;;;10.70;9.73;;;5.60;90.50;;;;;;5095664;28;20453;-44
2022/11/27 00:31:27;;;;;;;12.47;11.27;;;5.60;90.50;;;;;;5095664;28;20432;-44
2022/11/27 00:33:57;;;;;;;10.63;9.57;;;5.60;90.50;;;;;;5094273;28;20184;-46
2022/11/27 00:36:23;;;;;;;11.60;10.40;;;5.50;90.40;;;;;;5095199;28;20418;-43
2022/11/27 00:38:49;;;;;;;11.57;10.37;;;5.50;90.50;;;;;;5094876;28;20469;-45
2022/11/27 00:41:17;;;;;;;11.50;10.37;;;5.40;90.40;;;;;;5096016;28;20268;-45
2022/11/27 00:43:43;;;;;;;11.43;10.33;;;5.40;90.80;;;;;;5094592;28;20839;-46
2022/11/27 00:46:08;;;;;;;11.60;10.60;;;5.30;90.40;;;;;;5094997;28;20434;-45
2022/11/27 00:48:34;;;;;;;11.17;10.10;;;5.30;90.40;;;;;;5096695;28;20349;-46
2022/11/27 00:51:02;;;;;;;10.60;9.50;;;5.30;90.30;;;;;;5095299;28;20183;-45
2022/11/27 00:53:28;;;;;;;11.37;10.37;;;5.20;90.30;;;;;;5095810;28;20218;-43
2022/11/27 00:55:55;;;;;;;11.43;10.33;;;5.20;90.30;;;;;;5096410;28;20446;-44
2022/11/27 00:58:22;;;;;;;11.13;10.07;;;5.10;90.10;;;;;;5096745;28;20490;-44
2022/11/27 01:01:00;;;;;;;10.17;9.27;;;5.10;90.20;;;;;;5087533;28;20443;-43
2022/11/27 01:03:28;;;;;;;12.37;10.57;;;5.00;90.10;;;;;;5075990;28;20526;-45
2022/11/27 01:05:54;;;;;;;12.93;11.63;;;5.00;90.10;;;;;;5091455;28;20430;-43
2022/11/27 01:08:20;;;;;;;11.80;10.70;;;5.00;90.10;;;;;;5087180;28;20437;-46
2022/11/27 01:10:54;;;;;;;14.63;11.60;;;4.90;90.10;;;;;;5081582;28;20433;-45
2022/11/27 01:13:23;;;;;;;11.33;10.30;;;4.90;90.00;;;;;;5080322;28;20722;-43
2022/11/27 01:16:01;;;;;;;11.40;10.30;;;4.80;90.00;;;;;;5081306;28;20427;-43
2022/11/27 01:18:28;;;;;;;11.00;9.90;;;4.80;89.90;;;;;;5086824;28;20484;-45
2022/11/27 01:20:54;;;;;;;12.60;11.40;;;4.70;89.80;;;;;;5095566;28;20484;-42
2022/11/27 01:23:21;;;;;;;15.20;13.63;;;4.80;89.90;;;;;;5093544;28;20477;-45
2022/11/27 01:25:47;;;;;;;14.30;12.90;;;4.70;89.80;;;;;;5097126;28;20431;-44
2022/11/27 01:28:13;;;;;;;15.23;13.67;;;4.70;89.80;;;;;;5096841;28;20430;-46
2022/11/27 01:30:38;;;;;;;14.40;12.90;;;4.60;89.70;;;;;;5095995;28;20506;-46
2022/11/27 01:33:04;;;;;;;12.67;11.57;;;4.60;89.70;;;;;;5095111;28;20454;-46
2022/11/27 01:35:29;;;;;;;13.83;11.90;;;4.60;89.70;;;;;;5093752;28;20180;-47
2022/11/27 01:37:55;;;;;;;12.60;11.40;;;4.50;89.60;;;;;;5094340;28;20582;-45
2022/11/27 01:40:21;;;;;;;13.17;11.87;;;4.50;89.50;;;;;;5095724;28;20176;-46
2022/11/27 01:42:47;;;;;;;13.37;12.00;;;4.50;89.60;;;;;;5094741;28;20596;-44
2022/11/27 01:45:16;;;;;;;13.80;12.33;;;4.50;89.50;;;;;;5093228;28;20419;-45
2022/11/27 01:47:47;;;;;;;13.50;12.20;;;4.40;89.50;;;;;;5092840;28;20598;-46
2022/11/27 01:50:17;;;;;;;13.47;12.20;;;4.40;89.50;;;;;;5094526;28;20422;-45
2022/11/27 01:52:47;;;;;;;13.30;12.10;;;4.40;89.50;;;;;;5098332;28;20904;-45
2022/11/27 01:55:42;;;;;;;13.90;12.50;;;4.30;89.40;;;;;;5099756;28;20429;-43
2022/11/27 01:58:10;;;;;;;14.07;12.47;;;4.30;89.50;;;;;;5098446;28;20465;-44
2022/11/27 02:00:37;;;;;;;15.23;12.10;;;4.30;89.50;;;;;;5098553;28;20422;-45
2022/11/27 02:03:02;;;;;;;14.57;13.17;;;4.20;89.40;;;;;;5098179;28;20461;-44
2022/11/27 02:05:28;;;;;;;13.63;11.90;;;4.20;89.50;;;;;;5098163;28;20464;-44
2022/11/27 02:07:56;;;;;;;14.73;12.23;;;4.20;90.10;;;;;;5098456;28;20644;-43
2022/11/27 02:10:35;;;;;;;14.10;12.70;;;4.10;89.30;;;;;;5098618;28;20835;-45
2022/11/27 02:13:09;;;;;;;13.50;11.23;;;4.10;89.30;;;;;;5099129;28;20822;-44
2022/11/27 02:15:52;;;;;;;12.67;11.43;;;4.10;89.30;;;;;;5099253;28;20441;-44
2022/11/27 02:18:34;;;;;;;15.07;13.50;;;4.10;89.40;;;;;;5096832;28;20469;-47
2022/11/27 02:21:09;;;;;;;12.83;11.40;;;4.00;89.30;;;;;;5099955;28;20697;-45
2022/11/27 02:23:56;;;;;;;15.30;12.40;;;4.00;89.40;;;;;;5097594;28;20414;-47
2022/11/27 02:26:43;;;;;;;13.13;11.67;;;4.00;89.40;;;;;;5098635;28;20402;-43
2022/11/27 02:29:10;;;;;;;12.10;10.90;;;4.00;89.30;;;;;;5081701;28;20434;-44
2022/11/27 02:31:44;;;;;;;12.87;11.60;;;3.90;89.30;;;;;;5098299;28;20928;-45
2022/11/27 02:34:31;;;;;;;11.47;10.33;;;3.90;89.30;;;;;;5098832;28;20666;-44
2022/11/27 02:37:31;;;;;;;12.10;10.80;;;3.90;89.30;;;;;;5097478;28;20418;-44
2022/11/27 02:40:11;;;;;;;12.67;11.23;;;3.90;89.30;;;;;;5097188;28;20506;-45
2022/11/27 02:42:41;;;;;;;13.03;10.93;;;3.80;89.20;;;;;;5098044;28;20427;-44
2022/11/27 02:45:21;;;;;;;11.20;10.03;;;3.80;89.10;;;;;;5097567;28;20538;-45
2022/11/27 02:47:47;;;;;;;11.63;10.43;;;3.80;89.10;;;;;;5097427;28;20422;-47
2022/11/27 02:50:18;;;;;;;11.50;10.30;;;3.80;89.20;;;;;;5097997;28;20419;-45
2022/11/27 02:52:44;;;;;;;10.60;9.50;;;3.70;89.00;;;;;;5098482;28;20449;-45
2022/11/27 02:55:13;;;;;;;11.00;9.80;;;3.70;88.90;;;;;;5097601;28;20766;-45
2022/11/27 02:57:39;;;;;;;10.00;9.00;;;3.70;88.90;;;;;;5096409;28;20489;-45
2022/11/27 03:00:06;;;;;;;11.03;9.97;;;3.70;89.00;;;;;;5096847;28;20487;-44
2022/11/27 03:02:35;;;;;;;9.77;8.60;;;3.60;88.90;;;;;;5094166;28;20427;-44
2022/11/27 03:05:03;;;;;;;10.47;9.40;;;3.60;88.90;;;;;;5096683;28;20407;-44
2022/11/27 03:07:35;;;;;;;11.00;9.90;;;3.60;88.80;;;;;;5077909;28;20439;-43
2022/11/27 03:10:06;;;;;;;11.00;9.90;;;3.60;88.80;;;;;;5078597;28;20416;-45
2022/11/27 03:12:32;;;;;;;10.97;9.97;;;3.50;88.70;;;;;;5076032;28;20533;-44
2022/11/27 03:14:57;;;;;;;11.27;10.13;;;3.50;89.30;;;;;;5076927;28;20511;-44
2022/11/27 03:17:59;;;;;;;11.10;9.70;;;3.50;88.70;;;;;;5077940;28;20215;-44
2022/11/27 03:20:27;;;;;;;11.30;10.07;;;3.50;88.70;;;;;;5096257;28;20823;-45
2022/11/27 03:22:54;;;;;;;12.00;10.77;;;3.40;88.60;;;;;;5096983;28;20441;-44
2022/11/27 03:25:20;;;;;;;10.97;9.83;;;3.40;88.60;;;;;;5097401;28;20410;-44
2022/11/27 03:27:59;;;;;;;11.27;10.17;;;3.40;88.70;;;;;;5095827;28;20867;-45
2022/11/27 03:30:25;;;;;;;11.23;10.03;;;3.40;88.70;;;;;;5096933;28;20437;-44
2022/11/27 03:32:51;;;;;;;12.53;10.50;;;3.40;88.70;;;;;;5096281;28;20430;-44
2022/11/27 03:35:19;;;;;;;12.23;10.73;;;3.30;88.70;;;;;;5096844;28;20419;-46
2022/11/27 03:37:45;;;;;;;12.77;11.17;;;3.30;88.70;;;;;;5095723;28;20220;-44
2022/11/27 03:40:11;;;;;;;12.30;11.00;;;3.30;88.80;;;;;;5097148;28;20422;-45
2022/11/27 03:43:08;;;;;;;12.90;11.60;;;3.30;88.80;;;;;;5097252;28;20426;-45
2022/11/27 03:45:42;;;;;;;12.60;11.13;;;3.30;88.70;;;;;;5096530;28;20422;-44
2022/11/27 03:48:26;;;;;;;14.27;12.07;;;3.20;88.50;;;;;;5097973;28;20437;-44
2022/11/27 03:51:21;;;;;;;18.20;13.67;;;3.20;88.60;;;;;;5098099;28;20550;-44
2022/11/27 03:53:55;;;;;;;18.00;14.30;;;3.20;88.60;;;;;;5097113;28;20415;-46
2022/11/27 03:56:40;;;;;;;16.83;13.10;;;3.20;88.60;;;;;;5077119;28;20521;-45
2022/11/27 03:59:14;;;;;;;18.07;15.50;;;3.20;88.60;;;;;;5074779;28;20908;-45
2022/11/27 04:01:40;;;;;;;18.40;14.90;;;3.20;88.60;;;;;;5075762;28;20423;-44
2022/11/27 04:04:06;;;;;;;18.47;14.60;;;3.10;88.50;;;;;;5075678;28;20534;-44
2022/11/27 04:06:32;;;;;;;17.40;13.60;;;3.10;88.50;;;;;;5076284;28;20190;-43
2022/11/27 04:08:57;;;;;;;16.57;13.60;;;3.10;88.50;;;;;;5095075;28;20839;-43
2022/11/27 04:11:23;;;;;;;17.27;13.80;;;3.10;88.50;;;;;;5096263;28;20188;-44
2022/11/27 04:13:51;;;;;;;15.90;13.77;;;3.10;88.50;;;;;;5095178;28;20192;-44
2022/11/27 04:16:17;;;;;;;16.60;13.33;;;3.10;88.50;;;;;;5095767;28;20199;-44
2022/11/27 04:18:42;;;;;;;17.87;13.73;;;3.00;88.50;;;;;;5096457;28;20470;-44
2022/11/27 04:21:08;;;;;;;17.07;13.63;;;3.00;88.40;;;;;;5096417;28;20511;-45
2022/11/27 04:23:34;;;;;;;15.10;12.77;;;3.00;88.50;;;;;;5097016;28;20194;-46
2022/11/27 04:25:59;;;;;;;13.60;12.20;;;3.00;88.50;;;;;;5096785;28;20206;-44
2022/11/27 04:28:25;;;;;;;18.57;13.17;;;3.00;88.50;;;;;;5097493;28;20172;-46
2022/11/27 04:30:52;;;;;;;14.47;9.90;;;3.00;88.50;;;;;;5097276;28;20184;-45
2022/11/27 04:33:17;;;;;;;12.47;9.90;;;3.00;88.50;;;;;;5097848;28;20489;-45
2022/11/27 04:35:43;;;;;;;14.73;10.40;;;3.00;88.50;;;;;;5096994;28;20434;-43
2022/11/27 04:38:09;;;;;;;14.47;9.83;;;2.90;88.40;;;;;;5097687;28;20204;-45
2022/11/27 04:40:34;;;;;;;10.47;8.47;;;2.90;88.50;;;;;;5097996;28;20208;-45
2022/11/27 04:43:00;;;;;;;9.57;7.77;;;2.90;88.60;;;;;;5097808;28;20176;-43
2022/11/27 04:45:25;;;;;;;9.33;8.40;;;2.90;88.70;;;;;;5097688;28;20176;-44
2022/11/27 04:47:51;;;;;;;10.00;7.37;;;2.90;88.90;;;;;;5097435;28;20200;-43
2022/11/27 04:50:17;;;;;;;8.47;7.37;;;2.90;89.00;;;;;;5097277;28;20184;-53
2022/11/27 04:52:42;;;;;;;7.40;6.60;;;2.90;89.00;;;;;;5097073;28;20345;-43
2022/11/27 04:55:08;;;;;;;10.13;7.20;;;2.90;89.10;;;;;;5097425;28;20176;-45
2022/11/27 04:57:34;;;;;;;7.37;6.57;;;2.90;89.10;;;;;;5096856;28;20271;-44
2022/11/27 05:00:00;;;;;;;7.67;6.90;;;2.90;89.10;;;;;;5097236;28;20415;-46
2022/11/27 05:02:25;;;;;;;7.40;6.27;;;2.90;89.00;;;;;;5097671;28;20198;-45
2022/11/27 05:04:51;;;;;;;8.30;7.10;;;2.90;89.20;;;;;;5095404;28;20640;-45
2022/11/27 05:07:16;;;;;;;7.30;6.40;;;2.90;89.30;;;;;;5095651;28;20180;-48
2022/11/27 05:09:42;;;;;;;7.40;6.10;;;2.80;89.40;;;;;;5097223;28;20187;-46
2022/11/27 05:12:08;;;;;;;7.50;5.80;;;2.90;89.60;;;;;;5096399;28;20184;-42
2022/11/27 05:14:33;;;;;;;7.57;6.00;;;2.90;89.80;;;;;;5096790;28;20183;-44
2022/11/27 05:16:59;;;;;;;6.60;5.70;;;2.90;90.00;;;;;;5095674;28;20570;-44
2022/11/27 05:19:27;;;;;;;6.37;5.57;;;2.90;90.00;;;;;;5096003;28;20173;-45
2022/11/27 05:21:53;;;;;;;7.40;6.33;;;2.80;90.30;;;;;;5093899;28;20199;-43
2022/11/27 05:24:20;;;;;;;6.43;5.83;;;2.90;90.00;;;;;;5095946;28;20403;-44
2022/11/27 05:26:46;;;;;;;6.20;5.60;;;2.90;90.00;;;;;;5080986;28;20430;-45
2022/11/27 05:29:13;;;;;;;6.40;5.80;;;2.80;89.90;;;;;;5098154;28;20517;-46
2022/11/27 05:31:38;;;;;;;7.07;5.53;;;2.80;89.80;;;;;;5099887;28;20469;-45
2022/11/27 05:34:04;;;;;;;7.23;5.47;;;2.80;89.70;;;;;;5100596;28;20890;-43
2022/11/27 05:36:31;;;;;;;6.73;5.80;;;2.80;89.70;;;;;;5100500;28;20183;-46
2022/11/27 05:38:57;;;;;;;7.93;6.30;;;2.70;89.50;;;;;;5098079;28;20552;-44
2022/11/27 05:41:23;;;;;;;6.93;6.23;;;2.70;89.60;;;;;;5098381;28;20537;-43
2022/11/27 05:43:48;;;;;;;8.47;6.27;;;2.70;89.70;;;;;;5099129;28;20191;-45
2022/11/27 05:46:16;;;;;;;7.60;6.63;;;2.70;89.70;;;;;;5098760;28;20260;-43
2022/11/27 05:48:42;;;;;;;7.73;6.20;;;2.70;89.70;;;;;;5097071;28;20172;-45
2022/11/27 05:51:08;;;;;;;8.80;6.80;;;2.60;89.60;;;;;;5097676;28;20491;-45
2022/11/27 05:53:33;;;;;;;10.67;6.83;;;2.60;89.60;;;;;;5099081;28;20643;-43
2022/11/27 05:56:17;;;;;;;7.27;6.57;;;2.60;89.50;;;;;;5100463;28;20168;-46
2022/11/27 05:58:45;;;;;;;11.80;7.17;;;2.60;89.50;;;;;;5100520;28;20247;-45
2022/11/27 06:01:13;;;;;;;9.10;8.13;;;2.60;89.60;;;;;;5100605;28;20499;-43
2022/11/27 06:03:39;;;;;;;9.63;7.23;;;2.60;89.60;;;;;;5100626;28;20402;-45
2022/11/27 06:06:09;;;;;;;8.60;7.20;;;2.60;89.70;;;;;;5099945;28;20445;-44
2022/11/27 06:08:39;;;;;;;9.00;7.70;;;2.50;89.60;;;;;;5099595;28;20222;-44
2022/11/27 06:11:24;;;;;;;7.80;7.07;;;2.50;90.00;;;;;;5099807;28;20700;-44
2022/11/27 06:13:50;;;;;;;8.50;7.50;;;2.40;89.30;;;;;;5098016;28;20894;-42
2022/11/27 06:16:20;;;;;;;9.70;7.10;;;2.30;89.40;;;;;;5097956;28;20410;-44
2022/11/27 06:18:54;;;;;;;9.63;7.40;;;2.20;89.50;;;;;;5097925;28;20470;-42
2022/11/27 06:21:20;;;;;;;7.53;6.73;;;2.20;89.80;;;;;;5099243;28;20811;-41
2022/11/27 06:23:46;;;;;;;7.13;6.47;;;2.10;90.00;;;;;;5087017;28;20419;-43
2022/11/27 06:26:27;;;;;;;9.07;8.10;;;2.00;90.10;;;;;;5080613;28;20442;-43
2022/11/27 06:28:54;;;;;;;9.07;7.73;;;2.00;90.20;;;;;;5098821;28;20455;-44
2022/11/27 06:31:24;;;;;;;7.63;6.93;;;1.90;90.20;;;;;;5098111;28;20697;-44
2022/11/27 06:33:52;;;;;;;9.83;7.63;;;1.90;90.40;;;;;;5099184;28;20854;-44
2022/11/27 06:36:18;;;;;;;8.80;7.00;;;1.90;90.50;;;;;;5097110;28;20828;-43
2022/11/27 06:38:45;;;;;;;15.47;7.67;;;1.90;90.60;;;;;;5095644;28;20454;-43
2022/11/27 06:41:16;;;;;;;8.27;6.90;;;1.90;90.70;;;;;;5097248;28;20442;-43
2022/11/27 06:43:41;;;;;;;8.80;7.57;;;1.90;90.80;;;;;;5096879;28;20816;-43
2022/11/27 06:46:11;;;;;;;12.60;9.23;;;1.90;90.80;;;;;;5096343;28;20575;-44
2022/11/27 06:48:36;;;;;;;16.00;10.20;;;1.90;90.80;;;;;;5095728;28;20172;-46
2022/11/27 06:51:04;;;;;;;13.43;10.10;;;1.90;90.90;;;;;;5096380;28;20445;-45
2022/11/27 06:53:32;;;;;;;17.10;12.03;;;1.90;90.90;;;;;;5097619;28;20265;-45
2022/11/27 06:55:57;;;;;;;13.67;10.20;;;1.90;90.90;;;;;;5098426;28;20434;-42
2022/11/27 06:58:23;;;;;;;12.80;10.27;;;1.90;90.90;;;;;;5099190;28;20748;-42
2022/11/27 07:00:49;;;;;;;15.07;10.13;;;1.90;91.00;;;;;;5098308;28;20199;-43
2022/11/27 07:03:14;;;;;;;10.20;9.07;;;2.00;91.10;;;;;;5096689;28;20422;-43
2022/11/27 07:05:40;;;;;;;10.73;8.60;;;2.00;91.10;;;;;;5094715;28;20170;-43
2022/11/27 07:08:06;;;;;;;10.70;7.90;;;2.10;91.20;;;;;;5093383;28;20204;-42
2022/11/27 07:10:35;;;;;;;8.20;6.73;;;2.20;91.20;;;;;;5092990;28;20441;-43
2022/11/27 07:13:01;;;;;;;11.13;7.87;;;2.30;91.30;;;;;;5095529;28;20183;-44
2022/11/27 07:15:26;;;;;;;9.20;6.10;;;2.40;91.40;;;;;;5096696;28;20415;-44
2022/11/27 07:17:52;;;;;;;8.67;6.57;;;2.60;91.50;;;;;;5094053;28;20485;-43
2022/11/27 07:20:18;;;;;;;7.80;5.63;;;2.70;91.60;;;;;;5096811;28;20183;-43
2022/11/27 07:22:43;;;;;;;7.40;5.73;;;2.80;91.80;;;;;;5097789;28;20169;-45
2022/11/27 07:25:09;;;;;;;6.70;5.70;;;3.10;92.00;;;;;;5097611;28;20263;-46
2022/11/27 07:27:34;;;;;;;6.80;4.67;;;3.30;92.00;;;;;;5098762;28;20176;-46
2022/11/27 07:30:00;;;;;;;5.37;4.83;;;3.60;92.00;;;;;;5097293;28;20199;-45
2022/11/27 07:32:26;;;;;;;7.10;5.27;;;3.90;92.00;;;;;;5097017;28;20177;-42
2022/11/27 07:34:51;;;;;;;6.13;5.47;;;4.20;92.00;;;;;;5097513;28;20554;-44
2022/11/27 07:37:17;;;;;;;6.77;5.07;;;4.50;91.90;;;;;;5096317;28;20211;-43
2022/11/27 07:39:42;;;;;;;8.70;5.27;;;4.80;91.90;;;;;;5096502;28;20585;-42
2022/11/27 07:42:08;;;;;;;6.23;4.90;;;5.10;91.60;;;;;;5096338;28;20184;-44
2022/11/27 07:44:33;;;;;;;6.03;4.93;;;5.50;91.50;;;;;;5095807;28;20179;-42
2022/11/27 07:46:59;;;;;;;5.10;4.37;;;5.90;91.20;;;;;;5096404;28;20442;-45
2022/11/27 07:49:25;;;;;;;5.10;4.27;;;6.40;91.00;;;;;;5096518;28;20203;-43
2022/11/27 07:51:50;;;;;;;5.77;5.13;;;6.80;90.40;;;;;;5098019;28;20177;-43
2022/11/27 07:54:16;;;;;;;7.20;4.83;;;7.00;89.60;;;;;;5096377;28;20470;-44
2022/11/27 07:56:41;;;;;;;6.73;5.60;;;7.20;88.90;;;;;;5094950;28;20231;-48
2022/11/27 07:59:07;;;;;;;7.67;4.90;;;7.50;89.00;;;;;;5096190;28;20207;-44
2022/11/27 08:01:32;;;;;;;6.20;5.47;;;7.90;88.40;;;;;;5094278;28;20179;-44
2022/11/27 08:03:58;;;;;;;9.50;4.87;;;8.10;87.10;;;;;;5094246;28;20164;-44
2022/11/27 08:06:25;;;;;;;5.53;4.27;;;8.30;86.20;;;;;;5094169;28;20522;-45
2022/11/27 08:08:51;;;;;;;6.57;4.57;;;8.50;85.70;;;;;;5094518;28;20248;-44
2022/11/27 08:11:25;;;;;;;5.87;4.33;;;8.80;85.30;;;;;;5094992;28;20422;-44
2022/11/27 08:13:56;;;;;;;5.40;4.53;;;9.00;84.50;;;;;;5095412;28;20422;-44
2022/11/27 08:16:21;;;;;;;4.60;4.20;;;9.30;83.90;;;;;;5095932;28;20511;-43
2022/11/27 08:18:47;;;;;;;7.17;3.80;;;9.90;84.10;;;;;;5096077;28;20749;-45
2022/11/27 08:21:13;;;;;;;4.93;4.43;;;10.80;81.30;;;;;;5094320;28;20551;-45
2022/11/27 08:23:39;;;;;;;5.20;4.57;;;11.50;78.70;;;;;;5095198;28;20183;-45
2022/11/27 08:26:06;;;;;;;5.17;4.03;;;12.50;76.80;;;;;;5094728;28;20180;-46
2022/11/27 08:28:32;;;;;;;5.50;4.90;;;13.70;73.80;;;;;;5095268;28;20184;-45
2022/11/27 08:30:59;;;;;;;5.37;4.87;;;14.90;70.10;;;;;;5095564;28;20781;-44
2022/11/27 08:33:25;;;;;;;5.17;4.73;;;16.00;65.50;;;;;;5094403;28;20421;-45
2022/11/27 08:35:50;;;;;;;5.80;5.30;;;16.60;61.00;;;;;;5093477;28;20410;-44
2022/11/27 08:38:17;;;;;;;4.30;4.00;;;16.60;58.80;;;;;;5094927;28;20200;-44
2022/11/27 08:40:42;;;;;;;4.73;4.23;;;16.60;58.10;;;;;;5097205;28;20252;-49
2022/11/27 08:43:08;;;;;;;4.60;4.20;;;17.40;57.20;;;;;;5095321;28;20662;-48
2022/11/27 08:45:34;;;;;;;5.77;4.57;;;18.40;55.50;;;;;;5095998;28;20183;-45
2022/11/27 08:47:59;;;;;;;4.83;4.07;;;18.80;53.10;;;;;;5095646;28;20180;-43
2022/11/27 08:50:25;;;;;;;6.50;4.70;;;19.10;51.40;;;;;;5095917;28;20200;-43
2022/11/27 08:52:50;;;;;;;5.00;3.90;;;19.50;50.30;;;;;;5095796;28;20439;-46
2022/11/27 08:55:16;;;;;;;4.30;3.77;;;19.90;48.80;;;;;;5095070;28;20191;-46
2022/11/27 08:57:41;;;;;;;5.17;4.67;;;20.00;47.90;;;;;;5093653;28;20251;-46
2022/11/27 09:00:08;;;;;;;5.57;5.07;;;19.90;46.70;;;;;;5092927;28;20194;-48
2022/11/27 09:02:34;;;;;;;5.60;5.10;;;19.50;46.90;;;;;;5093588;28;20267;-44
2022/11/27 09:05:01;;;;;;;5.20;4.70;;;19.00;46.70;;;;;;5091743;28;20521;-45
2022/11/27 09:07:27;;;;;;;6.40;5.10;;;18.80;46.90;;;;;;5092879;28;20693;-44
2022/11/27 09:09:52;;;;;;;4.67;4.10;;;18.50;47.10;;;;;;5092505;28;20464;-46
2022/11/27 09:12:18;;;;;;;5.90;4.77;;;18.00;47.40;;;;;;5094942;28;20172;-47
2022/11/27 09:14:44;;;;;;;6.83;5.27;;;17.60;47.70;;;;;;5096125;28;20176;-45
2022/11/27 09:17:09;;;;;;;5.37;4.77;;;17.30;48.20;;;;;;5094702;28;20554;-47
2022/11/27 09:19:35;;;;;;;4.67;4.07;;;16.90;48.60;;;;;;5095067;28;20225;-47
2022/11/27 09:22:01;;;;;;;4.43;4.03;;;16.70;48.80;;;;;;5094512;28;20176;-44
2022/11/27 09:24:26;;;;;;;4.57;4.17;;;16.40;48.90;;;;;;5094702;28;20188;-46
2022/11/27 09:26:52;;;;;;;4.00;3.43;;;16.20;49.30;;;;;;5094642;28;20855;-45
2022/11/27 09:29:18;;;;;;;3.40;3.10;;;16.30;49.50;;;;;;5095604;28;20187;-43
2022/11/27 09:31:43;;;;;;;4.23;3.53;;;16.80;49.20;;;;;;5094903;28;20187;-44
2022/11/27 09:34:09;;;;;;;3.90;3.30;;;17.10;48.70;;;;;;5094824;28;20192;-43
2022/11/27 09:36:35;;;;;;;4.60;3.57;;;17.30;47.70;;;;;;5092475;28;20562;-44
2022/11/27 09:39:02;;;;;;;3.93;3.00;;;17.40;47.60;;;;;;5093488;28;20207;-44
2022/11/27 09:41:32;;;;;;;6.30;3.50;;;17.60;47.30;;;;;;5094834;28;20194;-43
2022/11/27 09:44:10;;;;;;;3.57;2.67;;;17.70;47.00;;;;;;5093507;28;20689;-46
2022/11/27 09:46:39;;;;;;;3.33;3.03;;;18.10;46.90;;;;;;5093621;28;20468;-46
2022/11/27 09:49:07;;;;;;;4.77;3.07;;;18.70;46.60;;;;;;5093363;28;20416;-45
2022/11/27 09:51:37;;;;;;;3.90;3.10;;;19.30;46.00;;;;;;5091201;28;20474;-48
2022/11/27 09:54:09;;;;;;;6.97;3.60;;;20.20;44.90;;;;;;5092299;28;20670;-47
2022/11/27 09:56:35;;;;;;;11.80;3.30;;;20.90;63.30;;;;;;5092419;28;20473;-46
2022/11/27 09:59:02;;;;;;;6.83;3.33;;;21.60;68.70;;;;;;5092904;28;20463;-47
2022/11/27 10:01:30;;;;;;;5.20;3.90;;;22.30;66.10;;;;;;5093158;28;20579;-46
2022/11/27 10:03:56;;;;;;;7.90;3.57;;;22.70;62.50;;;;;;5094379;28;20410;-46
2022/11/27 10:06:32;;;;;;;6.20;3.50;;;22.80;59.80;;;;;;5092950;28;20430;-46
2022/11/27 10:09:24;;;;;;;4.17;3.40;;;23.20;58.70;;;;;;5095753;28;20716;-48
2022/11/27 10:12:21;;;;;;;7.87;3.20;;;23.50;55.80;;;;;;5094640;28;20857;-47
2022/11/27 10:15:07;;;;;;;3.60;3.03;;;23.60;54.10;;;;;;5092410;28;20415;-43
2022/11/27 10:17:47;;;;;;;4.87;3.50;;;23.80;50.70;;;;;;5079528;28;20486;-46
2022/11/27 10:20:42;;;;;;;2.90;2.60;;;24.70;47.10;;;;;;5097818;28;20438;-45
2022/11/27 10:23:30;;;;;;;4.90;3.33;;;26.00;42.60;;;;;;5096003;28;20434;-48
2022/11/27 10:26:38;;;;;;;3.80;3.00;;;27.40;38.20;;;;;;5095449;28;20427;-44
2022/11/27 10:29:29;;;;;;;3.67;3.10;;;28.50;35.20;;;;;;5096940;28;20747;-46
2022/11/27 10:31:58;;;;;;;3.53;3.13;;;29.00;34.00;;;;;;5096345;28;20421;-48
2022/11/27 10:34:49;;;;;;;3.63;2.77;;;29.30;33.50;;;;;;5096530;28;20462;-47
2022/11/27 10:37:18;;;;;;;3.20;2.87;;;29.90;33.00;;;;;;5094921;28;20388;-48
2022/11/27 10:39:53;;;;;;;2.80;2.60;;;30.50;31.70;;;;;;5094570;28;20397;-42
2022/11/27 10:42:23;;;;;;;3.73;3.00;;;30.50;31.00;;;;;;5096360;28;20412;-43
2022/11/27 10:45:05;;;;;;;3.17;2.60;;;30.40;30.30;;;;;;5093914;28;20413;-45
2022/11/27 10:47:31;;;;;;;2.73;2.40;;;30.20;30.20;;;;;;5096014;28;20437;-47
2022/11/27 10:49:58;;;;;;;2.60;2.23;;;29.70;30.70;;;;;;5095665;28;20437;-46
2022/11/27 10:52:24;;;;;;;3.00;2.70;;;29.00;31.00;;;;;;5096587;28;20483;-44
2022/11/27 10:54:58;;;;;;;3.33;2.87;;;28.40;31.90;;;;;;5096444;28;20419;-50
2022/11/27 10:57:42;;;;;;;4.37;3.17;;;27.60;32.40;;;;;;5096457;28;20782;-45
2022/11/27 11:00:19;;;;;;;3.80;3.00;;;26.70;32.10;;;;;;5096633;28;20418;-45
2022/11/27 11:02:47;;;;;;;3.57;2.70;;;27.20;32.00;;;;;;5097783;28;20528;-45
2022/11/27 11:05:24;;;;;;;2.57;2.20;;;28.70;30.90;;;;;;5095969;28;20403;-45
2022/11/27 11:08:12;;;;;;;3.27;2.97;;;30.70;29.70;;;;;;5097167;28;20431;-45
2022/11/27 11:10:48;;;;;;;3.30;3.00;;;32.30;28.40;;;;;;5095370;28;20832;-45
2022/11/27 11:13:26;;;;;;;3.07;2.77;;;33.20;27.40;;;;;;5096522;28;20404;-44
2022/11/27 11:15:55;;;;;;;3.17;2.93;;;33.10;26.90;;;;;;5096783;28;20679;-43
2022/11/27 11:18:24;;;;;;;3.13;2.83;;;33.20;26.70;;;;;;5096746;28;20607;-44
2022/11/27 11:20:54;;;;;;;3.37;3.03;;;33.20;26.60;;;;;;5096938;28;20450;-44
2022/11/27 11:23:27;;;;;;;4.00;3.10;;;33.40;26.50;;;;;;5091869;28;20413;-46
2022/11/27 11:25:55;;;;;;;3.30;3.00;;;34.40;26.30;;;;;;5098545;28;20456;-48
2022/11/27 11:28:21;;;;;;;3.63;3.30;;;35.50;26.00;;;;;;5097311;28;20432;-44
2022/11/27 11:31:04;;;;;;;3.73;3.43;;;35.30;25.40;;;;;;5097105;28;20802;-47
2022/11/27 11:33:30;;;;;;;4.00;3.53;;;33.70;25.60;;;;;;5095832;28;20421;-46
2022/11/27 11:36:06;;;;;;;3.23;2.93;;;32.30;26.00;;;;;;5095112;28;20407;-43
2022/11/27 11:38:32;;;;;;;3.00;2.80;;;31.00;26.50;;;;;;5093532;28;20956;-43
2022/11/27 11:41:01;;;;;;;3.30;3.00;;;29.60;27.10;;;;;;5094046;28;20417;-45
2022/11/27 11:43:34;;;;;;;2.87;2.67;;;28.50;27.60;;;;;;5095023;28;20887;-45
2022/11/27 11:46:24;;;;;;;3.20;2.90;;;27.50;28.00;;;;;;5094784;28;20422;-45
2022/11/27 11:48:55;;;;;;;3.67;3.37;;;26.70;28.50;;;;;;5094113;28;20470;-43
2022/11/27 11:51:47;;;;;;;3.83;3.43;;;26.80;28.80;;;;;;5096757;28;20808;-46
2022/11/27 11:54:48;;;;;;;3.43;3.13;;;28.40;28.10;;;;;;5096057;28;20823;-45
2022/11/27 11:57:17;;;;;;;4.83;3.80;;;30.30;27.20;;;;;;5088923;28;20433;-45
2022/11/27 12:00:09;;;;;;;3.73;3.43;;;31.00;26.70;;;;;;5096106;28;20423;-46
2022/11/27 12:03:03;;;;;;;4.97;4.27;;;31.00;26.40;;;;;;5095167;28;20430;-45
2022/11/27 12:05:52;;;;;;;4.63;4.23;;;30.60;26.40;;;;;;5095608;28;20425;-46
2022/11/27 12:08:30;;;;;;;4.57;4.17;;;30.40;26.50;;;;;;5095511;28;20856;-46
2022/11/27 12:11:22;;;;;;;4.57;4.10;;;29.80;26.90;;;;;;5096434;28;20433;-53
2022/11/27 12:14:10;;;;;;;3.60;3.30;;;29.50;30.00;;;;;;5097110;28;20395;-49
2022/11/27 12:16:59;;;;;;;4.10;3.40;;;29.10;31.80;;;;;;5095240;28;20433;-50
2022/11/27 12:20:09;;;;;;;3.13;2.83;;;29.10;33.00;;;;;;5092337;28;20392;-50
2022/11/27 12:22:39;;;;;;;4.13;3.10;;;30.10;31.90;;;;;;5087828;28;20711;-44
2022/11/27 12:25:32;;;;;;;4.50;3.47;;;31.90;29.80;;;;;;5096297;28;20406;-47
2022/11/27 12:28:29;;;;;;;4.83;3.30;;;33.50;29.00;;;;;;5094027;28;20613;-44
2022/11/27 12:31:04;;;;;;;3.37;2.87;;;34.80;27.70;;;;;;5094547;28;20414;-46
2022/11/27 12:33:41;;;;;;;6.50;2.93;;;35.50;27.10;;;;;;5096198;28;20430;-46
2022/11/27 12:36:25;;;;;;;2.63;2.40;;;35.40;26.50;;;;;;5096514;28;20673;-44
2022/11/27 12:39:20;;;;;;;5.50;3.00;;;34.80;26.10;;;;;;5097454;28;20419;-46
2022/11/27 12:41:48;;;;;;;3.07;2.53;;;34.00;26.30;;;;;;5093202;28;20409;-45
2022/11/27 12:44:36;;;;;;;4.50;3.50;;;32.90;27.00;;;;;;5094255;28;20459;-47
2022/11/27 12:47:18;;;;;;;3.73;2.73;;;32.10;27.60;;;;;;5083898;28;20536;-47
2022/11/27 12:49:56;;;;;;;3.13;2.40;;;32.00;28.20;;;;;;5093338;28;20725;-45
2022/11/27 12:52:30;;;;;;;3.60;3.17;;;32.40;28.00;;;;;;5092246;28;20414;-46
2022/11/27 12:55:11;;;;;;;2.30;2.10;;;33.00;27.50;;;;;;5091453;28;20671;-46
2022/11/27 12:57:47;;;;;;;3.33;2.90;;;33.60;27.00;;;;;;5092872;28;20466;-47
2022/11/27 13:00:18;;;;;;;3.83;3.50;;;33.40;26.80;;;;;;5095649;28;20491;-48
2022/11/27 13:02:55;;;;;;;2.83;2.60;;;32.70;27.00;;;;;;5096345;28;20415;-46
2022/11/27 13:05:25;;;;;;;4.43;2.80;;;32.10;27.30;;;;;;5096004;28;20380;-44